Time;durP1;ratioP1;P1;durP2;ratioP2;P2;SDS_P1;SDS_P2;PMS_P1;PMS_P2;Temp;Humidity;BMP_temperature;BMP_pressure;BME280_temperature;BME280_humidity;BME280_pressure;Samples;Min_cycle;Max_cycle;Signal;HPM_P1;HPM_P2
2022/11/03 00:01:05;;;;;;;75.97;37.30;;;6.60;99.90;;;;;;10404991;28;20501;-77
2022/11/03 00:06:06;;;;;;;96.93;45.00;;;6.60;99.90;;;;;;10403443;28;20029;-77
2022/11/03 00:11:12;;;;;;;84.60;42.80;;;6.60;99.90;;;;;;10404239;28;20048;-80
2022/11/03 00:16:13;;;;;;;88.13;42.10;;;6.60;99.90;;;;;;10401650;28;20029;-77
2022/11/03 00:21:13;;;;;;;79.53;38.03;;;6.60;99.90;;;;;;10404173;28;20397;-77
2022/11/03 00:26:17;;;;;;;86.37;41.17;;;6.60;99.90;;;;;;10402719;28;20033;-77
2022/11/03 00:31:20;;;;;;;78.97;39.30;;;6.50;99.90;;;;;;10389689;28;20048;-77
2022/11/03 00:36:27;;;;;;;86.03;39.57;;;6.50;99.90;;;;;;10396307;28;20030;-77
2022/11/03 00:41:27;;;;;;;84.07;35.77;;;6.40;99.90;;;;;;10404224;28;20061;-77
2022/11/03 00:46:29;;;;;;;74.87;35.93;;;6.40;99.90;;;;;;10399969;28;20116;-79
2022/11/03 00:51:30;;;;;;;78.20;35.80;;;6.20;99.90;;;;;;10401585;28;20048;-77
2022/11/03 00:56:33;;;;;;;82.57;37.53;;;6.20;99.90;;;;;;10403785;28;20671;-80
2022/11/03 01:01:39;;;;;;;87.33;39.93;;;6.10;99.90;;;;;;10400261;28;20061;-81
2022/11/03 01:06:48;;;;;;;81.30;38.47;;;6.10;99.90;;;;;;10400986;28;20025;-77
2022/11/03 01:11:56;;;;;;;76.23;38.03;;;6.00;99.90;;;;;;10410143;28;20041;-81
2022/11/03 01:16:57;;;;;;;74.07;34.63;;;6.00;99.90;;;;;;10409601;28;20057;-78
2022/11/03 01:21:57;;;;;;;71.47;29.10;;;5.90;99.90;;;;;;10411178;28;20132;-77
2022/11/03 01:26:58;;;;;;;54.97;26.10;;;5.90;99.90;;;;;;10410148;28;20485;-77
2022/11/03 01:31:59;;;;;;;52.87;23.83;;;5.80;99.90;;;;;;10392370;28;20045;-77
2022/11/03 01:36:59;;;;;;;45.80;21.70;;;5.70;99.90;;;;;;10409938;28;20033;-77
2022/11/03 01:42:00;;;;;;;53.37;23.30;;;5.70;99.90;;;;;;10403945;28;20025;-77
2022/11/03 01:47:03;;;;;;;45.77;22.20;;;5.70;99.90;;;;;;10392464;28;20129;-77
2022/11/03 01:52:32;;;;;;;59.30;27.63;;;5.70;99.90;;;;;;10407756;28;20103;-75
2022/11/03 01:57:44;;;;;;;60.37;28.03;;;5.70;99.90;;;;;;10405853;28;20132;-76
2022/11/03 02:02:45;;;;;;;52.97;26.87;;;5.70;99.90;;;;;;10408746;28;20050;-78
2022/11/03 02:07:57;;;;;;;49.90;26.07;;;5.60;99.90;;;;;;10403927;28;20056;-76
2022/11/03 02:12:58;;;;;;;61.13;28.67;;;5.60;99.90;;;;;;10409746;28;20083;-77
2022/11/03 02:17:59;;;;;;;64.30;32.83;;;5.70;99.90;;;;;;10397542;28;20037;-79
2022/11/03 02:23:24;;;;;;;70.07;29.73;;;5.80;99.90;;;;;;10407650;28;20041;-77
2022/11/03 02:28:29;;;;;;;60.03;29.73;;;6.00;99.90;;;;;;10404970;28;20040;-77
2022/11/03 02:33:42;;;;;;;54.72;26.25;;;6.10;99.90;;;;;;10405715;28;20417;-76
2022/11/03 02:38:53;;;;;;;51.90;23.60;;;6.20;99.90;;;;;;10399816;28;20053;-75
2022/11/03 02:43:55;;;;;;;48.93;20.57;;;6.00;99.90;;;;;;10402604;28;20045;-77
2022/11/03 02:48:56;;;;;;;61.30;25.97;;;5.80;99.90;;;;;;10401964;28;20038;-76
2022/11/03 02:54:18;;;;;;;54.87;25.80;;;5.70;99.90;;;;;;10406302;28;20444;-74
2022/11/03 02:59:25;;;;;;;60.50;24.90;;;5.60;99.90;;;;;;10401838;28;20029;-76
2022/11/03 03:04:31;;;;;;;58.57;26.13;;;5.50;99.90;;;;;;10401636;28;20513;-79
2022/11/03 03:09:44;;;;;;;;;;;5.40;99.90;;;;;;10402556;28;20029;-79
2022/11/03 03:14:49;;;;;;;60.37;26.50;;;5.30;99.90;;;;;;10399922;28;20408;-80
2022/11/03 03:19:59;;;;;;;59.03;23.50;;;5.30;99.90;;;;;;10398541;28;20404;-77
2022/11/03 03:25:10;;;;;;;52.63;23.83;;;5.30;99.90;;;;;;10389151;28;20048;-77
2022/11/03 03:30:11;;;;;;;54.07;20.80;;;5.30;99.90;;;;;;10402102;28;20040;-77
2022/11/03 03:35:21;;;;;;;49.47;21.43;;;5.20;99.90;;;;;;10393891;28;20021;-76
2022/11/03 03:40:37;;;;;;;43.03;19.73;;;5.10;99.90;;;;;;10418519;23;20056;-75
2022/11/03 03:45:39;;;;;;;44.53;19.47;;;5.20;99.90;;;;;;10432332;28;20100;-78
2022/11/03 03:50:42;;;;;;;37.03;17.97;;;5.40;99.90;;;;;;10446150;28;20938;-79
2022/11/03 03:55:49;;;;;;;30.97;15.23;;;5.50;99.90;;;;;;10439852;28;20488;-77
2022/11/03 04:00:50;;;;;;;39.93;18.90;;;5.50;99.90;;;;;;10442796;28;20036;-77
2022/11/03 04:05:52;;;;;;;81.10;29.20;;;5.40;99.90;;;;;;10444336;28;20035;-77
2022/11/03 04:26:51;;;;;;;83.50;41.37;;;4.80;99.90;;;;;;10444682;28;20068;-79
2022/11/03 04:31:51;;;;;;;93.00;45.80;;;4.80;99.90;;;;;;10444599;28;20044;-77
2022/11/03 04:36:52;;;;;;;105.70;44.90;;;4.80;99.90;;;;;;10442973;28;20033;-82
2022/11/03 04:41:52;;;;;;;97.83;42.33;;;4.70;99.90;;;;;;10432890;28;20432;-77
2022/11/03 04:46:53;;;;;;;180.73;67.87;;;4.60;99.90;;;;;;10442387;28;20021;-77
2022/11/03 04:51:54;;;;;;;103.53;54.30;;;4.60;99.90;;;;;;10441149;28;20051;-77
2022/11/03 04:56:55;;;;;;;125.67;62.73;;;4.70;99.90;;;;;;10441516;28;20424;-76
2022/11/03 05:01:55;;;;;;;139.37;60.77;;;4.60;99.90;;;;;;10440372;28;20033;-77
2022/11/03 05:06:56;;;;;;;165.83;70.90;;;4.60;99.90;;;;;;10442964;28;20037;-78
2022/11/03 05:11:58;;;;;;;135.33;63.20;;;4.50;99.90;;;;;;10438837;28;20040;-77
2022/11/03 05:17:00;;;;;;;97.47;47.50;;;4.40;99.90;;;;;;10441946;28;20037;-79
2022/11/03 05:22:03;;;;;;;115.43;51.43;;;4.40;99.90;;;;;;10438815;28;20599;-80
2022/11/03 05:27:09;;;;;;;437.47;97.23;;;4.50;99.90;;;;;;10431753;28;20024;-77
2022/11/03 05:32:32;;;;;;;292.67;73.57;;;4.60;99.90;;;;;;10429116;28;20408;-77
2022/11/03 05:37:34;;;;;;;92.87;45.07;;;4.70;99.90;;;;;;10443904;28;20086;-78
2022/11/03 05:42:41;;;;;;;108.17;45.20;;;4.70;99.90;;;;;;10431126;28;20061;-80
2022/11/03 05:47:42;;;;;;;147.33;48.73;;;4.60;99.90;;;;;;10433190;28;20078;-78
2022/11/03 05:52:44;;;;;;;107.47;46.50;;;4.50;99.90;;;;;;10437906;28;20063;-77
2022/11/03 05:57:45;;;;;;;123.73;46.47;;;4.60;99.90;;;;;;10449635;28;20060;-79
2022/11/03 06:02:48;;;;;;;101.87;43.37;;;4.50;99.90;;;;;;10449005;28;20492;-77
2022/11/03 06:07:51;;;;;;;90.33;42.80;;;4.30;99.90;;;;;;10450664;28;20532;-77
2022/11/03 06:13:00;;;;;;;81.73;40.20;;;4.20;99.90;;;;;;10447397;28;20037;-78
2022/11/03 06:18:20;;;;;;;81.00;39.37;;;4.20;99.90;;;;;;10440485;28;20477;-77
2022/11/03 06:23:21;;;;;;;191.87;55.70;;;4.20;99.90;;;;;;10447262;28;20032;-80
2022/11/03 06:28:41;;;;;;;82.53;39.80;;;4.20;99.90;;;;;;10445658;28;20057;-80
2022/11/03 06:33:41;;;;;;;71.53;36.63;;;4.30;99.90;;;;;;10443029;28;20032;-77
2022/11/03 06:38:47;;;;;;;88.43;43.50;;;4.40;99.90;;;;;;10443058;28;20493;-77
2022/11/03 06:43:48;;;;;;;;;;;4.40;99.90;;;;;;10447801;28;20110;-77
2022/11/03 06:48:49;;;;;;;100.27;47.73;;;4.50;99.90;;;;;;10449512;28;19913;-80
2022/11/03 06:53:52;;;;;;;99.33;49.00;;;4.60;99.90;;;;;;10448886;28;20403;-79
2022/11/03 06:58:57;;;;;;;100.10;54.63;;;4.60;99.90;;;;;;10449107;28;20060;-78
2022/11/03 07:04:20;;;;;;;181.37;92.10;;;4.70;99.90;;;;;;10422958;28;20029;-78
2022/11/03 07:09:24;;;;;;;258.87;130.37;;;4.80;99.90;;;;;;10448767;28;20033;-80
2022/11/03 07:14:31;;;;;;;330.13;172.10;;;5.00;99.90;;;;;;10442940;28;20044;-80
2022/11/03 07:19:40;;;;;;;265.20;125.00;;;5.30;99.90;;;;;;10442122;28;20024;-77
2022/11/03 07:24:44;;;;;;;155.70;74.60;;;5.40;99.90;;;;;;10442176;28;20040;-78
2022/11/03 07:29:46;;;;;;;368.87;166.07;;;5.70;99.90;;;;;;10435401;28;20393;-77
2022/11/03 07:34:48;;;;;;;271.57;113.43;;;5.90;99.90;;;;;;10447540;28;20052;-77
2022/11/03 07:39:50;;;;;;;202.03;93.73;;;6.10;99.90;;;;;;10438746;28;20496;-77
2022/11/03 07:44:51;;;;;;;76.00;41.40;;;6.40;99.90;;;;;;10440403;28;20029;-77
2022/11/03 07:49:55;;;;;;;70.83;37.43;;;6.80;99.90;;;;;;10437296;28;20443;-77
2022/11/03 07:54:58;;;;;;;55.20;32.90;;;7.30;99.90;;;;;;10443975;28;20480;-77
2022/11/03 08:00:08;;;;;;;76.37;46.33;;;7.60;99.90;;;;;;10446351;28;20025;-81
2022/11/03 08:05:09;;;;;;;52.53;32.03;;;8.10;99.90;;;;;;10438504;28;20029;-80
2022/11/03 08:10:09;;;;;;;50.93;29.50;;;8.50;99.90;;;;;;10445613;28;20043;-78
2022/11/03 08:15:10;;;;;;;50.33;29.93;;;8.90;99.90;;;;;;10445900;28;20032;-78
2022/11/03 08:20:11;;;;;;;53.60;29.45;;;9.10;99.90;;;;;;10444403;28;20074;-78
2022/11/03 08:25:11;;;;;;;49.97;28.83;;;9.50;99.90;;;;;;10427515;28;20472;-80
2022/11/03 08:30:12;;;;;;;54.53;30.77;;;9.80;99.90;;;;;;10432461;28;20049;-81
2022/11/03 08:35:13;;;;;;;50.70;29.50;;;10.10;99.90;;;;;;10439739;28;20082;-77
2022/11/03 08:40:13;;;;;;;58.13;33.03;;;10.40;99.90;;;;;;10443731;28;20067;-76
2022/11/03 08:45:14;;;;;;;59.78;34.03;;;10.60;99.90;;;;;;10445931;28;20020;-77
2022/11/03 08:50:15;;;;;;;52.85;31.70;;;10.90;99.90;;;;;;10440463;28;20037;-79
2022/11/03 08:55:16;;;;;;;48.70;29.52;;;11.20;99.90;;;;;;10422257;28;20369;-78
2022/11/03 09:00:16;;;;;;;47.88;30.65;;;11.50;99.90;;;;;;10416646;28;20074;-79
2022/11/03 09:05:17;;;;;;;45.67;27.15;;;11.80;99.90;;;;;;10414757;28;20026;-79
2022/11/03 09:10:18;;;;;;;40.53;24.65;;;12.00;99.90;;;;;;10428675;28;20037;-78
2022/11/03 09:15:18;;;;;;;38.95;23.73;;;12.10;99.90;;;;;;10430518;28;20385;-78
2022/11/03 09:20:19;;;;;;;47.30;23.25;;;12.40;99.90;;;;;;10438222;28;20033;-78
2022/11/03 09:25:20;;;;;;;29.02;16.15;;;12.50;99.90;;;;;;10445651;28;20040;-80
2022/11/03 09:30:21;;;;;;;28.23;15.70;;;12.90;99.90;;;;;;10440284;28;20039;-79
2022/11/03 09:35:21;;;;;;;25.80;14.98;;;13.20;99.90;;;;;;10452714;28;20025;-78
2022/11/03 09:40:24;;;;;;;28.55;12.15;;;13.50;99.90;;;;;;10450662;28;20456;-80
2022/11/03 09:45:24;;;;;;;23.48;11.48;;;13.50;99.90;;;;;;10451878;28;20021;-81
2022/11/03 09:50:25;;;;;;;28.38;14.82;;;13.50;99.90;;;;;;10446169;28;20037;-78
2022/11/03 09:55:26;;;;;;;25.30;13.75;;;13.70;99.90;;;;;;10450307;28;20029;-79
2022/11/03 10:00:27;;;;;;;23.85;13.50;;;13.80;99.90;;;;;;10450230;28;20476;-78
2022/11/03 10:05:28;;;;;;;28.00;14.57;;;13.80;99.90;;;;;;10435601;28;20025;-79
2022/11/03 10:10:30;;;;;;;24.25;13.50;;;14.00;99.90;;;;;;10450816;28;20484;-82
2022/11/03 10:15:31;;;;;;;26.30;14.15;;;14.10;99.90;;;;;;10438492;28;20022;-78
2022/11/03 10:20:31;;;;;;;19.58;11.90;;;14.20;99.90;;;;;;10444451;28;20055;-79
2022/11/03 10:25:43;;;;;;;18.15;9.27;;;14.30;99.90;;;;;;10436514;28;20583;-78
2022/11/03 10:30:55;;;;;;;23.52;9.13;;;14.60;99.90;;;;;;10427091;28;20088;-80
2022/11/03 10:36:04;;;;;;;15.55;8.27;;;14.70;99.90;;;;;;10447782;28;20029;-79
2022/11/03 10:41:09;;;;;;;18.52;8.45;;;14.80;99.90;;;;;;10435051;28;20069;-79
2022/11/03 10:46:11;;;;;;;16.97;7.83;;;14.90;99.90;;;;;;10435286;28;20447;-78
2022/11/03 10:51:13;;;;;;;15.73;8.02;;;14.90;96.30;;;;;;10448424;28;20033;-79
2022/11/03 10:56:14;;;;;;;13.85;8.20;;;14.90;94.80;;;;;;10449698;28;20052;-78
2022/11/03 11:01:14;;;;;;;13.73;7.15;;;15.00;95.60;;;;;;10428438;28;20112;-82
2022/11/03 11:06:21;;;;;;;13.00;7.30;;;15.10;95.20;;;;;;10442605;28;20041;-79
2022/11/03 11:11:23;;;;;;;12.52;6.50;;;15.30;96.00;;;;;;10422392;28;20033;-78
2022/11/03 11:16:51;;;;;;;13.85;8.13;;;15.40;94.00;;;;;;10433777;28;20022;-79
2022/11/03 11:21:52;;;;;;;14.10;6.40;;;15.50;91.60;;;;;;10421531;28;20033;-78
2022/11/03 11:26:53;;;;;;;11.00;5.47;;;15.50;91.90;;;;;;10425990;28;20025;-81
2022/11/03 11:31:53;;;;;;;7.50;4.05;;;15.60;92.20;;;;;;10440534;28;20060;-83
2022/11/03 11:36:54;;;;;;;10.85;4.82;;;15.70;87.30;;;;;;10448030;28;20051;-79
2022/11/03 11:42:04;;;;;;;5.70;3.33;;;15.70;85.80;;;;;;10427559;28;20075;-78
2022/11/03 11:47:23;;;;;;;11.07;4.32;;;15.80;81.10;;;;;;10417610;28;20029;-80
2022/11/03 11:52:24;;;;;;;10.75;5.60;;;15.80;80.10;;;;;;10429997;28;20028;-81
2022/11/03 11:57:29;;;;;;;8.02;3.83;;;15.70;82.80;;;;;;10432421;28;20102;-81
2022/11/03 12:02:30;;;;;;;7.95;3.30;;;15.80;82.50;;;;;;10430630;28;20136;-81
2022/11/03 12:07:36;;;;;;;5.25;2.80;;;15.80;79.80;;;;;;10444479;28;20033;-81
2022/11/03 12:12:36;;;;;;;8.00;2.90;;;15.70;77.50;;;;;;10418885;28;20072;-80
2022/11/03 12:17:37;;;;;;;4.82;2.35;;;15.60;77.10;;;;;;10444439;28;20111;-82
2022/11/03 12:22:39;;;;;;;6.70;3.47;;;15.70;76.40;;;;;;10430155;28;20556;-81
2022/11/03 12:27:41;;;;;;;7.63;3.50;;;15.80;73.00;;;;;;10428649;28;20032;-81
2022/11/03 12:32:42;;;;;;;15.05;12.07;;;15.90;75.10;;;;;;10430928;28;20127;-78
2022/11/03 12:37:42;;;;;;;12.07;7.15;;;15.90;74.00;;;;;;10443854;28;20457;-78
2022/11/03 12:42:43;;;;;;;7.35;5.38;;;15.90;73.40;;;;;;10432831;28;20060;-78
2022/11/03 12:47:43;;;;;;;6.40;4.32;;;15.90;72.30;;;;;;10437202;28;20027;-77
2022/11/03 12:52:44;;;;;;;6.45;3.30;;;16.00;73.20;;;;;;10427770;28;20041;-78
2022/11/03 12:57:45;;;;;;;8.95;3.30;;;16.00;73.40;;;;;;10416125;28;20569;-81
2022/11/03 13:02:45;;;;;;;6.30;3.28;;;16.00;72.60;;;;;;10439070;28;20115;-83
2022/11/03 13:07:46;;;;;;;7.00;3.60;;;15.90;71.20;;;;;;10451935;28;20040;-78
2022/11/03 13:12:46;;;;;;;6.75;3.30;;;15.90;71.00;;;;;;10426114;28;20148;-78
2022/11/03 13:17:47;;;;;;;11.32;3.88;;;15.90;72.30;;;;;;10436998;28;20400;-77
2022/11/03 13:22:48;;;;;;;7.43;3.60;;;15.80;72.30;;;;;;10433178;28;20025;-78
2022/11/03 13:27:52;;;;;;;9.88;5.80;;;15.70;71.20;;;;;;10443766;28;20112;-78
2022/11/03 13:32:53;;;;;;;9.90;4.35;;;15.60;72.50;;;;;;10431512;28;20593;-78
2022/11/03 13:37:53;;;;;;;15.25;6.82;;;15.30;71.90;;;;;;10439298;28;20048;-82
2022/11/03 13:42:54;;;;;;;18.17;8.05;;;15.10;73.80;;;;;;10441022;28;20092;-77
2022/11/03 13:47:56;;;;;;;12.07;4.55;;;15.00;74.60;;;;;;10450607;28;20184;-80
2022/11/03 13:52:56;;;;;;;10.73;4.25;;;14.90;75.90;;;;;;10451705;28;20095;-78
2022/11/03 13:57:57;;;;;;;14.50;4.70;;;14.90;76.50;;;;;;10438845;28;20550;-79
2022/11/03 14:02:57;;;;;;;13.25;5.40;;;14.70;76.80;;;;;;10446876;28;20028;-78
2022/11/03 14:07:58;;;;;;;10.90;4.57;;;14.40;77.80;;;;;;10452011;28;20056;-79
2022/11/03 14:12:58;;;;;;;10.00;4.68;;;14.40;77.10;;;;;;10436363;28;20048;-77
2022/11/03 14:17:59;;;;;;;16.40;6.60;;;14.30;78.30;;;;;;10445991;28;20025;-80
2022/11/03 14:22:59;;;;;;;18.77;7.68;;;14.20;78.70;;;;;;10450536;28;20029;-79
2022/11/03 14:28:00;;;;;;;17.95;7.18;;;14.00;78.40;;;;;;10448616;28;20113;-78
2022/11/03 14:33:00;;;;;;;43.00;22.88;;;13.60;79.30;;;;;;10435814;28;20468;-78
2022/11/03 14:38:01;;;;;;;52.20;28.13;;;13.30;80.80;;;;;;10446967;28;20017;-78
2022/11/03 14:43:01;;;;;;;174.52;86.05;;;12.90;81.60;;;;;;10425474;28;20073;-78
2022/11/03 14:48:02;;;;;;;232.15;117.05;;;12.60;82.80;;;;;;10449973;28;20104;-78
2022/11/03 14:53:03;;;;;;;367.25;187.40;;;12.40;84.80;;;;;;10435672;28;20033;-78
2022/11/03 14:58:03;;;;;;;132.43;63.38;;;12.20;86.70;;;;;;10421601;28;20033;-82
2022/11/03 15:03:04;;;;;;;141.02;72.75;;;12.00;88.80;;;;;;10449265;28;20457;-78
2022/11/03 15:08:04;;;;;;;249.90;146.70;;;11.90;90.70;;;;;;10424443;28;20112;-80
2022/11/03 15:13:05;;;;;;;76.20;44.08;;;11.90;91.10;;;;;;10432920;28;20407;-78
2022/11/03 15:18:06;;;;;;;33.13;21.77;;;11.90;92.10;;;;;;10432566;28;20035;-78
2022/11/03 15:23:07;;;;;;;23.83;12.88;;;11.80;92.70;;;;;;10426629;28;20036;-78
2022/11/03 15:28:10;;;;;;;27.40;10.02;;;11.80;93.00;;;;;;10435206;28;20417;-78
2022/11/03 15:33:10;;;;;;;20.83;8.48;;;11.70;94.00;;;;;;10439664;28;20037;-78
2022/11/03 15:38:11;;;;;;;19.30;8.80;;;11.80;95.00;;;;;;10429173;28;20029;-78
2022/11/03 15:43:12;;;;;;;24.25;9.68;;;11.70;96.10;;;;;;10425045;28;20041;-81
2022/11/03 15:48:12;;;;;;;32.95;15.82;;;11.80;97.10;;;;;;10430453;28;20026;-79
2022/11/03 15:53:13;;;;;;;41.65;26.80;;;11.70;98.40;;;;;;10421203;28;20068;-78
2022/11/03 15:58:13;;;;;;;58.90;39.50;;;11.60;99.50;;;;;;10433923;28;20656;-78
2022/11/03 16:03:14;;;;;;;256.50;165.52;;;11.60;99.90;;;;;;10429636;28;20033;-78
2022/11/03 16:08:14;;;;;;;134.00;84.75;;;11.50;99.90;;;;;;10446183;28;20054;-79
2022/11/03 16:13:15;;;;;;;59.38;41.80;;;11.40;99.90;;;;;;10422812;28;20049;-81
2022/11/03 16:18:15;;;;;;;53.75;34.80;;;11.30;99.90;;;;;;10419566;28;20618;-81
2022/11/03 16:23:16;;;;;;;50.13;31.33;;;11.20;99.90;;;;;;10442299;28;20032;-81
2022/11/03 16:28:16;;;;;;;44.50;20.80;;;11.10;99.90;;;;;;10418057;28;20539;-78
2022/11/03 16:33:17;;;;;;;60.90;28.50;;;11.00;99.90;;;;;;10430614;28;20480;-80
2022/11/03 16:38:18;;;;;;;94.60;46.00;;;11.00;99.90;;;;;;10426347;28;20018;-78
2022/11/03 16:43:18;;;;;;;84.30;47.35;;;11.00;99.90;;;;;;10423100;28;20072;-78
2022/11/03 16:48:19;;;;;;;71.97;40.20;;;11.00;99.90;;;;;;10444268;28;20021;-81
2022/11/03 16:53:20;;;;;;;59.45;33.42;;;10.90;99.90;;;;;;10416008;28;20040;-79
2022/11/03 16:58:20;;;;;;;37.92;22.17;;;10.80;99.90;;;;;;10433021;28;20395;-79
2022/11/03 17:03:21;;;;;;;42.45;23.50;;;10.70;99.90;;;;;;10423911;28;20033;-77
2022/11/03 17:08:21;;;;;;;27.25;16.23;;;10.70;99.90;;;;;;10429932;28;20029;-78
2022/11/03 17:13:22;;;;;;;33.25;18.55;;;10.80;99.90;;;;;;10432797;28;20041;-78
2022/11/03 17:18:22;;;;;;;39.13;19.40;;;10.80;99.90;;;;;;10429496;28;20033;-79
2022/11/03 17:23:23;;;;;;;52.95;25.75;;;10.70;99.90;;;;;;10426450;28;20029;-81
2022/11/03 17:28:24;;;;;;;51.80;24.63;;;10.70;99.90;;;;;;10430274;28;20031;-78
2022/11/03 17:33:24;;;;;;;40.08;20.05;;;10.60;99.90;;;;;;10419259;28;20045;-78
2022/11/03 17:38:26;;;;;;;53.20;28.58;;;10.50;99.90;;;;;;10431599;28;20544;-77
2022/11/03 17:43:28;;;;;;;82.22;41.38;;;10.40;99.90;;;;;;10437921;28;20068;-78
2022/11/03 17:48:29;;;;;;;83.65;44.50;;;10.50;99.90;;;;;;10444772;28;20025;-81
2022/11/03 17:53:32;;;;;;;55.65;30.90;;;10.60;99.90;;;;;;10443703;28;20041;-78
2022/11/03 17:58:36;;;;;;;52.90;27.30;;;10.70;99.90;;;;;;10416569;28;20116;-78
2022/11/03 18:03:36;;;;;;;49.05;25.02;;;10.80;99.90;;;;;;10451892;28;20473;-78
2022/11/03 18:08:37;;;;;;;49.22;25.52;;;10.90;99.90;;;;;;10437299;28;20032;-78
2022/11/03 18:13:37;;;;;;;42.90;22.25;;;11.00;99.90;;;;;;10443216;28;20038;-78
2022/11/03 18:18:44;;;;;;;47.10;23.88;;;11.00;99.90;;;;;;10445431;28;20029;-78
2022/11/03 18:23:45;;;;;;;78.00;32.85;;;11.10;99.90;;;;;;10441236;28;20750;-80
2022/11/03 18:28:46;;;;;;;68.30;32.47;;;11.10;99.90;;;;;;10436850;28;20112;-79
2022/11/03 18:33:47;;;;;;;40.33;18.58;;;11.20;99.90;;;;;;10422428;28;20029;-78
2022/11/03 18:38:55;;;;;;;32.15;14.60;;;11.20;99.90;;;;;;10433435;28;20087;-77
2022/11/03 18:43:57;;;;;;;40.13;17.77;;;11.20;99.90;;;;;;10437680;28;20083;-78
2022/11/03 18:48:57;;;;;;;44.88;20.88;;;11.20;99.90;;;;;;10424064;28;20068;-78
2022/11/03 18:53:58;;;;;;;53.13;24.80;;;11.20;99.90;;;;;;10435672;28;20091;-78
2022/11/03 18:58:59;;;;;;;46.08;22.40;;;11.20;99.90;;;;;;10435480;28;20029;-80
2022/11/03 19:03:59;;;;;;;52.30;25.40;;;11.20;99.90;;;;;;10449310;28;20040;-78
2022/11/03 19:09:00;;;;;;;42.67;19.45;;;11.20;99.90;;;;;;10434794;28;20029;-78
2022/11/03 19:14:01;;;;;;;41.55;18.20;;;11.20;99.90;;;;;;10435501;28;20037;-78
2022/11/03 19:19:01;;;;;;;36.55;17.40;;;11.20;99.90;;;;;;10435096;28;20025;-78
2022/11/03 19:24:03;;;;;;;46.15;23.38;;;11.10;99.90;;;;;;10434698;28;20385;-78
2022/11/03 19:29:10;;;;;;;53.67;26.42;;;10.90;99.90;;;;;;10429468;28;20023;-79
2022/11/03 19:34:15;;;;;;;56.47;27.77;;;10.70;99.90;;;;;;10435079;28;20048;-78
2022/11/03 19:39:32;;;;;;;44.67;21.38;;;10.60;99.90;;;;;;10419682;28;20055;-79
2022/11/03 19:44:32;;;;;;;;;;;10.40;99.90;;;;;;10440973;28;20115;-79
2022/11/03 19:49:33;;;;;;;61.05;28.10;;;10.30;99.90;;;;;;10444995;28;19913;-80
2022/11/03 19:54:34;;;;;;;79.88;36.15;;;10.30;99.90;;;;;;10445717;28;20053;-79
2022/11/03 19:59:34;;;;;;;62.15;27.23;;;10.30;99.90;;;;;;10446662;28;20123;-80
2022/11/03 20:04:35;;;;;;;88.95;37.95;;;10.30;99.90;;;;;;10440852;28;20144;-78
2022/11/03 20:09:36;;;;;;;60.13;26.20;;;10.40;99.90;;;;;;10443098;28;20110;-80
2022/11/03 20:14:37;;;;;;;51.15;24.05;;;10.40;99.90;;;;;;10436241;28;20037;-78
2022/11/03 20:19:38;;;;;;;70.68;33.40;;;10.40;99.90;;;;;;10445535;28;20025;-79
2022/11/03 20:24:38;;;;;;;45.67;20.75;;;10.30;99.90;;;;;;10441887;28;20029;-80
2022/11/03 20:29:39;;;;;;;49.78;25.25;;;10.30;99.90;;;;;;10431299;28;20044;-78
2022/11/03 20:34:40;;;;;;;81.32;39.47;;;10.30;99.90;;;;;;10443271;28;20472;-78
2022/11/03 20:39:42;;;;;;;52.38;24.90;;;10.30;99.90;;;;;;10442559;28;20090;-79
2022/11/03 20:44:43;;;;;;;50.40;24.75;;;10.30;99.90;;;;;;10444795;28;20017;-80
2022/11/03 20:49:44;;;;;;;53.17;22.90;;;10.30;99.90;;;;;;10431173;28;20025;-78
2022/11/03 20:54:45;;;;;;;42.53;20.35;;;10.30;99.90;;;;;;10444086;28;20045;-79
2022/11/03 20:59:45;;;;;;;38.00;17.17;;;10.30;99.90;;;;;;10434154;28;20431;-81
2022/11/03 21:04:46;;;;;;;32.53;15.57;;;10.20;99.90;;;;;;10442892;28;20029;-81
2022/11/03 21:09:46;;;;;;;35.88;16.42;;;10.20;99.90;;;;;;10444550;28;20025;-79
2022/11/03 21:20:10;;;;;;;32.97;15.97;;;10.10;99.90;;;;;;10431099;28;20056;-79
2022/11/03 21:25:16;;;;;;;33.87;15.73;;;10.10;99.90;;;;;;10445944;28;20066;-78
2022/11/03 21:30:17;;;;;;;;;;;10.10;99.90;;;;;;10445776;28;20067;-80
2022/11/03 21:35:19;;;;;;;45.13;20.63;;;10.10;99.90;;;;;;10447981;28;20399;-78
2022/11/03 21:40:20;;;;;;;41.17;20.48;;;10.10;99.90;;;;;;10439183;22;20053;-82
2022/11/03 21:45:20;;;;;;;33.43;17.03;;;10.00;99.90;;;;;;10378034;28;20030;-82
2022/11/03 21:50:21;;;;;;;37.42;18.52;;;9.90;99.90;;;;;;10396583;28;20493;-78
2022/11/03 21:55:22;;;;;;;37.77;18.80;;;9.80;99.90;;;;;;10408506;28;20560;-77
2022/11/03 22:00:22;;;;;;;34.87;17.33;;;9.80;99.90;;;;;;10399704;28;20044;-78
2022/11/03 22:05:23;;;;;;;35.87;17.93;;;9.70;99.90;;;;;;10410768;28;20417;-78
2022/11/03 22:10:23;;;;;;;38.07;19.20;;;9.70;99.90;;;;;;10407723;28;20037;-80
2022/11/03 22:31:39;;;;;;;39.80;18.93;;;9.50;99.90;;;;;;10391096;28;20046;-78
2022/11/03 22:36:39;;;;;;;35.80;19.77;;;9.60;99.90;;;;;;10390643;28;20025;-78
2022/11/03 22:46:59;;;;;;;41.00;19.77;;;9.60;99.90;;;;;;10394129;28;20128;-79
2022/11/03 22:52:00;;;;;;;34.43;18.43;;;9.50;99.90;;;;;;10388594;28;20408;-78
2022/11/03 22:57:00;;;;;;;39.00;18.53;;;9.50;99.90;;;;;;10394747;28;20102;-82
2022/11/03 23:02:01;;;;;;;33.87;17.80;;;9.50;99.90;;;;;;10393930;28;20041;-78
2022/11/03 23:07:01;;;;;;;37.53;19.13;;;9.40;99.90;;;;;;10400147;28;20029;-78
2022/11/03 23:12:02;;;;;;;37.37;18.60;;;9.30;99.90;;;;;;10401104;28;20052;-78
2022/11/03 23:17:03;;;;;;;39.80;19.37;;;9.20;99.90;;;;;;10395404;28;20103;-79
2022/11/03 23:22:03;;;;;;;33.20;17.73;;;9.10;99.90;;;;;;10403729;28;20034;-78
2022/11/03 23:27:05;;;;;;;32.87;17.83;;;9.10;99.90;;;;;;10400620;28;20096;-80
2022/11/03 23:32:05;;;;;;;43.77;21.97;;;9.00;99.90;;;;;;10395669;28;20036;-78
2022/11/03 23:37:06;;;;;;;41.07;20.63;;;9.00;99.90;;;;;;10404283;28;20469;-78
2022/11/03 23:42:06;;;;;;;47.37;21.93;;;8.90;99.90;;;;;;10395512;28;20057;-78
2022/11/03 23:52:26;;;;;;;38.17;18.33;;;8.80;99.90;;;;;;10380577;28;20065;-78
